Time;durP1;ratioP1;P1;durP2;ratioP2;P2;SDS_P1;SDS_P2;PMS_P1;PMS_P2;Temp;Humidity;BMP_temperature;BMP_pressure;BME280_temperature;BME280_humidity;BME280_pressure;Samples;Min_cycle;Max_cycle;Signal;HPM_P1;HPM_P2
2023/08/08 00:00:04;;;;;;;1.85;0.90;;;;;;;19.30;100.00;99822.84;5053355;28;20214;-72
2023/08/08 00:02:31;;;;;;;1.05;0.80;;;;;;;19.73;100.00;99905.09;5052910;28;20235;-72
2023/08/08 00:04:59;;;;;;;0.70;0.68;;;;;;;19.61;100.00;99907.16;5034244;28;20198;-72
2023/08/08 00:07:29;;;;;;;0.80;0.80;;;;;;;19.48;100.00;99910.97;5053326;28;20226;-72
2023/08/08 00:09:56;;;;;;;1.27;0.80;;;;;;;19.36;100.00;99919.13;5053204;28;20196;-72
2023/08/08 00:12:23;;;;;;;1.30;0.85;;;;;;;19.44;100.00;99927.75;5053034;28;20705;-72
2023/08/08 00:14:50;;;;;;;0.80;0.80;;;;;;;19.44;100.00;99933.00;5052884;28;20207;-72
2023/08/08 00:17:17;;;;;;;1.05;0.80;;;;;;;19.29;100.00;99928.94;5052935;28;20199;-73
2023/08/08 00:19:43;;;;;;;0.70;0.70;;;;;;;19.21;100.00;99910.69;5052196;28;20206;-72
2023/08/08 00:22:12;;;;;;;2.92;1.00;;;;;;;19.31;100.00;99888.56;5052859;28;20670;-73
2023/08/08 00:24:38;;;;;;;1.00;0.80;;;;;;;19.24;100.00;99881.72;5052691;28;20216;-72
2023/08/08 00:27:05;;;;;;;2.25;1.02;;;;;;;19.02;100.00;99893.59;5052765;28;20223;-73
2023/08/08 00:29:32;;;;;;;0.80;0.80;;;;;;;18.98;100.00;99876.16;5017811;28;20207;-74
2023/08/08 00:31:59;;;;;;;1.50;0.88;;;;;;;18.94;100.00;99877.13;5052757;28;20230;-73
2023/08/08 00:34:26;;;;;;;0.73;0.73;;;;;;;18.72;100.00;99839.13;5052154;28;20191;-74
2023/08/08 00:36:53;;;;;;;1.55;0.90;;;;;;;19.05;100.00;99874.31;5052716;28;20206;-74
2023/08/08 00:39:21;;;;;;;0.80;0.80;;;;;;;19.15;100.00;99863.53;5052273;28;20191;-73
2023/08/08 00:41:47;;;;;;;1.10;0.90;;;;;;;19.00;100.00;99853.38;5052441;28;20196;-73
2023/08/08 00:44:14;;;;;;;0.70;0.70;;;;;;;19.08;100.00;99869.84;5052142;28;20206;-73
2023/08/08 00:46:41;;;;;;;0.93;0.90;;;;;;;19.07;100.00;99860.22;5051915;28;20719;-73
2023/08/08 00:49:08;;;;;;;0.70;0.70;;;;;;;18.92;100.00;99897.34;5051978;28;20203;-73
2023/08/08 00:51:35;;;;;;;1.85;0.98;;;;;;;18.90;100.00;99888.63;5052234;28;20254;-73
2023/08/08 00:54:03;;;;;;;0.80;0.80;;;;;;;18.77;100.00;99913.41;5051897;28;20215;-73
2023/08/08 00:56:32;;;;;;;1.70;0.88;;;;;;;18.98;100.00;99896.34;5051346;28;20674;-73
2023/08/08 00:58:59;;;;;;;1.00;0.80;;;;;;;18.86;100.00;99908.00;5051685;28;20671;-72
2023/08/08 01:01:26;;;;;;;2.17;0.90;;;;;;;18.55;100.00;99925.28;5052094;28;20199;-73
2023/08/08 01:03:54;;;;;;;0.80;0.80;;;;;;;18.51;100.00;99932.34;5051986;28;20202;-73
2023/08/08 01:06:25;;;;;;;1.08;0.85;;;;;;;18.51;100.00;99942.88;5051926;28;20206;-74
2023/08/08 01:08:58;;;;;;;0.85;0.70;;;;;;;18.44;100.00;99948.22;5016353;28;20204;-74
2023/08/08 01:11:28;;;;;;;2.10;1.02;;;;;;;18.33;100.00;99953.69;5051959;28;20199;-73
2023/08/08 01:13:57;;;;;;;0.60;0.60;;;;;;;17.88;100.00;99863.53;5051642;28;20210;-73
2023/08/08 01:16:27;;;;;;;1.85;0.90;;;;;;;18.21;100.00;99951.25;5051741;28;20207;-73
2023/08/08 01:18:57;;;;;;;0.75;0.75;;;;;;;18.10;100.00;99940.97;5051488;28;20265;-73
2023/08/08 01:21:25;;;;;;;3.92;1.17;;;;;;;18.01;100.00;99949.00;5033426;28;20210;-73
2023/08/08 01:23:57;;;;;;;1.25;0.85;;;;;;;18.04;100.00;99941.06;5051520;28;20253;-73
2023/08/08 01:26:26;;;;;;;1.88;1.00;;;;;;;17.98;100.00;99946.41;5051753;28;20207;-73
2023/08/08 01:28:55;;;;;;;0.73;0.73;;;;;;;17.84;100.00;99927.41;5049481;28;20199;-73
2023/08/08 01:31:21;;;;;;;2.70;1.05;;;;;;;18.01;100.00;99954.25;5051788;28;20235;-73
2023/08/08 01:33:49;;;;;;;0.60;0.60;;;;;;;17.82;100.00;99923.97;5050982;28;20200;-73
2023/08/08 01:36:25;;;;;;;3.60;1.15;;;;;;;17.92;100.00;99935.16;5051835;28;20195;-74
2023/08/08 01:38:54;;;;;;;0.77;0.77;;;;;;;17.85;100.00;99942.28;5049649;28;20192;-73
2023/08/08 01:41:22;;;;;;;3.30;1.15;;;;;;;17.86;100.00;99941.38;5051963;28;20206;-73
2023/08/08 01:43:51;;;;;;;1.17;0.95;;;;;;;17.98;100.00;99941.16;5050649;28;20204;-75
2023/08/08 01:46:18;;;;;;;0.80;0.80;;;;;;;17.90;100.00;99940.44;5051296;28;20612;-74
2023/08/08 01:48:46;;;;;;;0.80;0.80;;;;;;;17.84;100.00;99924.78;5051247;28;20216;-73
2023/08/08 01:51:13;;;;;;;0.60;0.60;;;;;;;17.71;100.00;99910.16;5051515;28;20318;-73
2023/08/08 01:53:40;;;;;;;0.85;0.85;;;;;;;17.95;100.00;99937.72;5051218;28;20211;-73
2023/08/08 01:56:07;;;;;;;2.05;0.88;;;;;;;17.81;100.00;99924.84;5051109;28;20650;-73
2023/08/08 01:58:34;;;;;;;0.80;0.80;;;;;;;17.66;100.00;99885.75;5051201;28;20210;-74
2023/08/08 02:01:02;;;;;;;2.70;0.98;;;;;;;17.98;100.00;99928.03;5051375;28;20218;-72
2023/08/08 02:03:28;;;;;;;0.80;0.80;;;;;;;17.85;100.00;99923.91;5032773;28;20207;-72
2023/08/08 02:05:55;;;;;;;1.80;0.93;;;;;;;17.85;100.00;99926.53;5051446;28;20207;-72
2023/08/08 02:08:22;;;;;;;0.80;0.77;;;;;;;17.80;100.00;99900.38;5034928;28;20223;-73
2023/08/08 02:10:49;;;;;;;3.63;1.15;;;;;;;18.03;100.00;99917.47;5055600;28;20206;-72
2023/08/08 02:13:15;;;;;;;0.80;0.80;;;;;;;18.14;100.00;99932.13;5036657;28;20690;-72
2023/08/08 02:15:42;;;;;;;2.72;0.98;;;;;;;17.88;100.00;99913.34;5055050;28;20655;-74
2023/08/08 02:18:11;;;;;;;0.70;0.70;;;;;;;18.04;100.00;99922.72;5054912;28;20567;-74
2023/08/08 02:20:37;;;;;;;1.85;0.90;;;;;;;18.00;100.00;99917.53;5036763;28;20234;-72
2023/08/08 02:23:05;;;;;;;0.70;0.70;;;;;;;18.04;100.00;99927.09;5036270;28;20678;-73
2023/08/08 02:25:31;;;;;;;1.88;0.95;;;;;;;17.98;100.00;99933.28;5051401;28;20662;-76
2023/08/08 02:27:58;;;;;;;0.70;0.70;;;;;;;17.94;100.00;99936.00;5020174;28;20265;-73
2023/08/08 02:30:25;;;;;;;1.23;0.90;;;;;;;17.84;100.00;99917.78;5054769;28;20549;-73
2023/08/08 02:32:52;;;;;;;0.70;0.70;;;;;;;17.98;100.00;99948.19;5055330;28;20552;-73
2023/08/08 02:35:20;;;;;;;2.28;1.02;;;;;;;18.05;100.00;99948.03;5054524;28;20199;-73
2023/08/08 02:37:46;;;;;;;0.70;0.70;;;;;;;18.02;100.00;99948.09;5055248;28;20192;-73
2023/08/08 02:40:13;;;;;;;3.10;1.00;;;;;;;17.99;100.00;99958.66;5054815;28;20203;-74
2023/08/08 02:42:40;;;;;;;0.70;0.70;;;;;;;18.08;100.00;99969.00;5054828;28;20203;-73
2023/08/08 02:45:08;;;;;;;3.20;1.10;;;;;;;18.09;100.00;99975.94;5053913;28;20195;-73
2023/08/08 02:47:35;;;;;;;0.70;0.70;;;;;;;17.89;100.00;99959.69;5054816;28;20235;-74
2023/08/08 02:50:01;;;;;;;3.40;1.13;;;;;;;18.08;100.00;99962.88;5054373;28;20282;-73
2023/08/08 02:52:30;;;;;;;0.70;0.70;;;;;;;18.15;100.00;99960.13;5054699;28;20234;-74
2023/08/08 02:54:56;;;;;;;1.42;0.90;;;;;;;17.60;100.00;99876.25;5054196;28;20596;-72
2023/08/08 02:57:23;;;;;;;0.80;0.80;;;;;;;18.18;100.00;99974.94;5054402;28;20203;-72
2023/08/08 02:59:50;;;;;;;3.05;1.13;;;;;;;18.10;100.00;99987.31;5015609;28;20207;-72
2023/08/08 03:02:17;;;;;;;1.98;1.02;;;;;;;18.04;100.00;99998.81;5034436;28;20200;-73
2023/08/08 03:04:43;;;;;;;0.73;0.73;;;;;;;17.97;100.00;99991.06;5052379;28;20203;-72
2023/08/08 03:07:10;;;;;;;1.00;0.82;;;;;;;18.02;100.00;100005.81;5054082;28;20568;-72
2023/08/08 03:09:38;;;;;;;0.70;0.70;;;;;;;18.13;100.00;100014.38;5054094;28;20690;-72
2023/08/08 03:12:06;;;;;;;1.65;1.00;;;;;;;18.02;100.00;100003.19;5054018;28;20192;-74
2023/08/08 03:14:33;;;;;;;0.70;0.70;;;;;;;17.88;100.00;99994.69;5019144;28;20581;-72
2023/08/08 03:17:00;;;;;;;1.20;0.90;;;;;;;17.96;100.00;99997.19;5054244;28;20273;-72
2023/08/08 03:19:27;;;;;;;0.95;0.90;;;;;;;17.87;100.00;99974.59;5053409;28;20654;-73
2023/08/08 03:21:54;;;;;;;1.45;0.80;;;;;;;17.93;100.00;99985.00;5053999;28;20674;-73
2023/08/08 03:24:21;;;;;;;0.80;0.80;;;;;;;17.94;100.00;99997.22;5053680;28;20625;-72
2023/08/08 03:26:49;;;;;;;2.28;1.27;;;;;;;17.96;100.00;99992.81;5053932;28;20203;-73
2023/08/08 03:29:16;;;;;;;1.65;0.90;;;;;;;17.91;100.00;99992.00;5053730;28;20227;-73
2023/08/08 03:31:42;;;;;;;1.00;1.00;;;;;;;17.97;100.00;99996.28;5053886;28;20674;-72
2023/08/08 03:34:09;;;;;;;0.82;0.82;;;;;;;17.87;100.00;99997.34;5053756;28;20192;-73
2023/08/08 03:36:36;;;;;;;2.05;1.08;;;;;;;18.01;100.00;100022.47;5053882;28;20199;-73
2023/08/08 03:39:03;;;;;;;0.80;0.80;;;;;;;18.05;100.00;100024.13;5053659;28;20207;-73
2023/08/08 03:41:30;;;;;;;1.65;0.95;;;;;;;18.26;100.00;100033.44;5053542;28;20615;-73
2023/08/08 03:43:58;;;;;;;1.02;0.90;;;;;;;18.43;100.00;100039.25;5052911;28;20208;-73
2023/08/08 03:46:25;;;;;;;1.23;0.88;;;;;;;18.45;100.00;100041.81;5053573;28;20206;-74
2023/08/08 03:48:52;;;;;;;0.70;0.70;;;;;;;18.19;100.00;100032.63;5053434;28;20231;-73
2023/08/08 03:51:18;;;;;;;2.15;1.00;;;;;;;18.04;100.00;100003.19;5053331;28;20235;-73
2023/08/08 03:53:45;;;;;;;0.80;0.80;;;;;;;18.02;100.00;100008.44;5052700;28;20211;-73
2023/08/08 03:56:12;;;;;;;1.00;0.80;;;;;;;18.13;100.00;100045.88;5053362;28;20261;-72
2023/08/08 03:58:39;;;;;;;0.80;0.80;;;;;;;17.93;100.00;99995.47;5053191;28;20629;-73
2023/08/08 04:01:07;;;;;;;3.05;1.13;;;;;;;18.20;100.00;100042.25;5018412;28;20208;-73
2023/08/08 04:03:34;;;;;;;1.77;0.93;;;;;;;18.20;100.00;100052.75;5053132;28;20191;-73
2023/08/08 04:06:00;;;;;;;0.98;0.90;;;;;;;18.17;100.00;100058.06;5052788;28;20199;-72
2023/08/08 04:08:27;;;;;;;0.90;0.90;;;;;;;18.19;100.00;100051.00;5017959;28;20252;-73
2023/08/08 04:10:54;;;;;;;2.38;1.08;;;;;;;18.32;100.00;100047.31;5034504;28;20203;-73
2023/08/08 04:13:21;;;;;;;0.82;0.82;;;;;;;18.22;100.00;100052.75;5050628;28;20203;-74
2023/08/08 04:15:48;;;;;;;2.88;1.20;;;;;;;18.42;100.00;100057.63;5052651;28;20199;-73
2023/08/08 04:18:16;;;;;;;0.80;0.80;;;;;;;18.37;100.00;100041.13;5051222;28;20208;-73
2023/08/08 04:20:43;;;;;;;2.10;1.13;;;;;;;18.23;100.00;100057.06;5052322;28;20206;-73
2023/08/08 04:23:10;;;;;;;0.70;0.70;;;;;;;18.04;100.00;100025.03;5052082;28;20196;-73
2023/08/08 04:25:37;;;;;;;1.17;1.00;;;;;;;18.29;100.00;100036.00;5052622;28;20200;-73
2023/08/08 04:28:04;;;;;;;0.73;0.73;;;;;;;18.26;100.00;100044.75;5052410;28;20651;-73
2023/08/08 04:30:31;;;;;;;1.88;1.10;;;;;;;18.27;100.00;100045.63;5033400;28;20195;-73
2023/08/08 04:32:58;;;;;;;0.70;0.70;;;;;;;18.33;100.00;100043.75;5051141;28;20199;-73
2023/08/08 04:35:26;;;;;;;1.15;0.88;;;;;;;18.48;100.00;100047.06;5052307;28;20206;-74
2023/08/08 04:37:53;;;;;;;0.60;0.60;;;;;;;18.51;100.00;100058.41;5051844;28;20199;-74
2023/08/08 04:40:20;;;;;;;1.45;0.88;;;;;;;18.46;100.00;100040.94;5051791;28;20206;-73
2023/08/08 04:42:46;;;;;;;0.75;0.75;;;;;;;18.58;100.00;100069.66;5052188;28;20191;-73
2023/08/08 04:45:14;;;;;;;0.80;0.80;;;;;;;18.50;100.00;100063.63;5052284;28;20191;-73
2023/08/08 04:47:41;;;;;;;1.65;0.98;;;;;;;18.71;100.00;100071.16;5052062;28;20286;-73
2023/08/08 04:50:08;;;;;;;0.70;0.70;;;;;;;18.71;100.00;100077.28;5051278;28;20195;-72
2023/08/08 04:52:37;;;;;;;1.55;0.88;;;;;;;18.75;100.00;100075.47;5049553;28;20210;-73
2023/08/08 04:55:04;;;;;;;0.77;0.77;;;;;;;18.26;100.00;100008.00;5052053;28;20616;-74
2023/08/08 04:57:31;;;;;;;0.77;0.77;;;;;;;18.64;100.00;100073.03;5051659;28;20191;-73
2023/08/08 05:00:01;;;;;;;0.80;0.80;;;;;;;18.65;100.00;100058.16;5033773;28;20192;-73
2023/08/08 05:02:28;;;;;;;2.83;1.05;;;;;;;18.87;100.00;100074.38;5061874;28;20261;-73
2023/08/08 05:04:54;;;;;;;0.80;0.80;;;;;;;18.77;100.00;100079.78;5057369;28;20191;-71
2023/08/08 05:07:21;;;;;;;0.80;0.80;;;;;;;18.77;100.00;100085.03;5016420;28;20203;-76
2023/08/08 05:09:49;;;;;;;0.80;0.80;;;;;;;19.00;100.00;100084.63;5051066;28;20227;-78
2023/08/08 05:12:16;;;;;;;6.13;1.27;;;;;;;18.80;100.00;100057.84;5053384;28;20207;-72
2023/08/08 05:14:43;;;;;;;0.65;0.65;;;;;;;18.97;100.00;100095.19;5061614;28;20214;-71
2023/08/08 05:17:09;;;;;;;1.45;0.95;;;;;;;18.80;100.00;100086.75;5061096;28;20248;-72
2023/08/08 05:19:36;;;;;;;0.93;0.90;;;;;;;18.89;100.00;100089.22;5055667;28;20272;-72
2023/08/08 05:22:03;;;;;;;7.85;1.58;;;;;;;18.96;100.00;100124.13;5051440;28;20200;-72
2023/08/08 05:24:30;;;;;;;0.77;0.77;;;;;;;19.03;100.00;100136.25;5051060;28;20711;-73
2023/08/08 05:26:58;;;;;;;0.68;0.68;;;;;;;19.08;100.00;100123.91;5064868;28;20213;-71
2023/08/08 05:29:25;;;;;;;1.52;0.90;;;;;;;18.61;100.00;100106.38;5061481;28;20705;-71
2023/08/08 05:31:51;;;;;;;1.35;0.82;;;;;;;18.56;100.00;100084.56;5059025;28;20211;-71
2023/08/08 05:34:18;;;;;;;1.63;0.95;;;;;;;18.53;100.00;100087.25;5062256;28;20668;-72
2023/08/08 05:36:45;;;;;;;2.15;1.00;;;;;;;18.46;100.00;100103.97;5055775;28;20619;-70
2023/08/08 05:39:12;;;;;;;0.90;0.90;;;;;;;18.35;100.00;100125.13;5064482;28;20194;-72
2023/08/08 05:41:38;;;;;;;1.00;0.80;;;;;;;18.39;100.00;100126.81;5067253;28;20217;-73
2023/08/08 05:44:07;;;;;;;2.65;1.13;;;;;;;18.51;100.00;100131.94;5051126;28;20195;-72
2023/08/08 05:46:33;;;;;;;1.13;0.77;;;;;;;18.23;100.00;100110.44;5056879;28;20199;-71
2023/08/08 05:49:01;;;;;;;0.70;0.70;;;;;;;18.30;100.00;100127.81;5071627;28;20656;-71
2023/08/08 05:51:27;;;;;;;0.80;0.80;;;;;;;18.37;100.00;100133.00;5051335;28;20229;-72
2023/08/08 05:53:55;;;;;;;2.92;1.00;;;;;;;18.32;100.00;100147.06;5053216;28;20215;-71
2023/08/08 05:56:22;;;;;;;0.70;0.70;;;;;;;18.35;100.00;100167.13;5057703;28;20205;-78
2023/08/08 05:58:49;;;;;;;0.80;0.80;;;;;;;18.34;100.00;100179.41;5052157;28;20209;-77
2023/08/08 06:01:17;;;;;;;3.53;1.15;;;;;;;18.53;100.00;100187.03;5053077;28;20208;-80
2023/08/08 06:03:44;;;;;;;3.92;1.15;;;;;;;18.49;100.00;100194.06;5052914;28;20210;-79
2023/08/08 06:06:11;;;;;;;2.42;1.00;;;;;;;18.37;100.00;100182.88;5036094;28;20265;-76
2023/08/08 06:08:37;;;;;;;0.85;0.85;;;;;;;18.47;100.00;100182.72;5052348;28;20725;-72
2023/08/08 06:11:04;;;;;;;4.65;1.20;;;;;;;18.36;100.00;100183.75;5051774;28;20646;-76
2023/08/08 06:13:31;;;;;;;0.73;0.73;;;;;;;18.29;100.00;100191.75;5050371;28;20203;-79
2023/08/08 06:15:58;;;;;;;4.15;1.10;;;;;;;18.25;100.00;100192.66;5051543;28;20207;-73
2023/08/08 06:18:26;;;;;;;0.82;0.80;;;;;;;18.29;100.00;100193.50;5050453;28;20230;-71
2023/08/08 06:20:53;;;;;;;1.55;0.80;;;;;;;18.26;100.00;100191.75;5039284;28;20203;-72
2023/08/08 06:23:20;;;;;;;0.70;0.70;;;;;;;18.08;100.00;100168.44;5065170;28;20203;-71
2023/08/08 06:25:46;;;;;;;1.55;0.85;;;;;;;18.23;100.00;100183.06;5070491;28;20209;-71
2023/08/08 06:28:13;;;;;;;1.08;0.90;;;;;;;17.65;100.00;100099.06;5068948;28;20206;-71
2023/08/08 06:30:40;;;;;;;2.67;1.00;;;;;;;18.01;100.00;100150.16;5070808;28;20203;-75
2023/08/08 06:33:07;;;;;;;1.05;0.80;;;;;;;17.95;100.00;100151.09;5069138;28;20622;-78
2023/08/08 06:35:35;;;;;;;0.90;0.80;;;;;;;18.24;100.00;100175.19;5071161;28;20203;-77
2023/08/08 06:38:02;;;;;;;7.80;1.42;;;;;;;18.09;100.00;100174.50;5068873;28;20665;-76
2023/08/08 06:40:29;;;;;;;0.95;0.75;;;;;;;18.06;100.00;100180.69;5070973;28;20205;-77
2023/08/08 06:42:56;;;;;;;2.30;0.98;;;;;;;18.02;100.00;100181.59;5057143;28;20210;-77
2023/08/08 06:45:23;;;;;;;0.65;0.60;;;;;;;18.26;100.00;100215.38;5068344;28;20199;-77
2023/08/08 06:47:50;;;;;;;1.33;0.85;;;;;;;18.39;100.00;100218.72;5067299;28;20203;-79
2023/08/08 06:50:17;;;;;;;0.70;0.70;;;;;;;18.53;100.00;100200.16;5035757;28;20313;-77
2023/08/08 06:52:45;;;;;;;3.15;1.10;;;;;;;18.67;100.00;100211.31;5066903;28;20289;-71
2023/08/08 06:55:12;;;;;;;0.90;0.90;;;;;;;18.66;100.00;100194.69;5053511;28;20209;-71
2023/08/08 06:57:39;;;;;;;1.85;0.90;;;;;;;18.92;100.00;100191.63;5034088;28;20206;-72
2023/08/08 07:00:08;;;;;;;4.75;1.23;;;;;;;19.23;100.00;100202.47;5074482;28;20207;-71
2023/08/08 07:02:34;;;;;;;1.95;0.98;;;;;;;19.45;100.00;100208.22;5059777;28;20593;-72
2023/08/08 07:05:03;;;;;;;0.95;0.80;;;;;;;19.51;100.00;100189.72;5038895;28;20602;-72
2023/08/08 07:07:30;;;;;;;2.30;0.98;;;;;;;19.65;100.00;100200.81;5064084;28;20215;-72
2023/08/08 07:09:58;;;;;;;4.22;1.13;;;;;;;19.95;100.00;100205.44;5052763;28;20304;-73
2023/08/08 07:12:26;;;;;;;3.38;1.05;;;;;;;19.83;100.00;100208.34;5034731;28;20211;-73
2023/08/08 07:14:52;;;;;;;0.80;0.80;;;;;;;19.67;100.00;100218.31;5016536;28;20281;-75
2023/08/08 07:17:19;;;;;;;2.15;1.00;;;;;;;19.77;100.00;100221.59;5047537;28;20199;-71
2023/08/08 07:19:46;;;;;;;0.70;0.70;;;;;;;19.74;100.00;100214.66;5057400;28;20203;-72
2023/08/08 07:22:13;;;;;;;2.50;0.85;;;;;;;19.52;100.00;100215.97;5051090;28;20284;-73
2023/08/08 07:24:40;;;;;;;0.70;0.70;;;;;;;19.44;100.00;100194.19;5061826;28;20203;-74
2023/08/08 07:27:08;;;;;;;1.10;0.80;;;;;;;19.52;100.00;100199.31;5053330;28;20203;-73
2023/08/08 07:29:35;;;;;;;2.10;0.90;;;;;;;19.51;100.00;100200.22;5053394;28;20227;-73
2023/08/08 07:32:04;;;;;;;3.85;1.15;;;;;;;19.60;100.00;100200.03;5053307;28;20195;-73
2023/08/08 07:34:32;;;;;;;1.77;0.90;;;;;;;19.50;100.00;100191.47;5053271;28;20211;-73
2023/08/08 07:36:58;;;;;;;2.60;0.90;;;;;;;19.68;100.00;100185.84;5046610;28;20195;-72
2023/08/08 07:39:25;;;;;;;1.20;0.80;;;;;;;19.96;100.00;100199.28;5050080;28;20207;-78
2023/08/08 07:41:53;;;;;;;1.08;0.90;;;;;;;20.21;100.00;100192.59;5052338;28;20203;-76
2023/08/08 07:44:21;;;;;;;2.05;0.82;;;;;;;20.17;100.00;100185.66;5052888;28;20714;-73
2023/08/08 07:46:48;;;;;;;0.93;0.88;;;;;;;20.02;100.00;100212.31;5052751;28;20218;-72
2023/08/08 07:49:15;;;;;;;0.80;0.80;;;;;;;20.02;100.00;100211.44;5052808;28;20280;-73
2023/08/08 07:51:41;;;;;;;0.85;0.80;;;;;;;20.13;100.00;100207.69;5051019;28;20740;-73
2023/08/08 07:54:10;;;;;;;0.82;0.80;;;;;;;20.26;100.00;100205.66;5052737;28;20234;-78
2023/08/08 08:34:01;;;;;;;0.70;0.70;;;;;;;21.70;100.00;100220.47;5109170;27;20533;-69
2023/08/08 08:36:28;;;;;;;0.65;0.65;;;;;;;21.54;100.00;100230.63;5073057;28;20258;-69
2023/08/08 08:38:55;;;;;;;0.60;0.60;;;;;;;21.52;96.64;100216.59;5109104;28;20202;-69
2023/08/08 08:41:29;;;;;;;0.70;0.70;;;;;;;21.75;100.00;100224.75;5107424;28;20197;-69
2023/08/08 08:43:56;;;;;;;0.60;0.60;;;;;;;21.82;100.00;100225.44;5108862;28;20204;-69
2023/08/08 08:46:24;;;;;;;0.70;0.70;;;;;;;21.92;100.00;100224.28;5102081;28;20206;-69
2023/08/08 08:48:52;;;;;;;0.63;0.63;;;;;;;21.89;100.00;100221.72;5108711;28;20198;-69
2023/08/08 08:51:21;;;;;;;0.77;0.77;;;;;;;21.99;100.00;100191.50;5107291;28;20190;-69
2023/08/08 08:53:47;;;;;;;0.70;0.70;;;;;;;22.30;100.00;100211.69;5104774;28;20217;-70
2023/08/08 08:56:16;;;;;;;0.65;0.65;;;;;;;22.46;96.85;100215.59;5108526;28;20205;-69
2023/08/08 08:58:43;;;;;;;0.60;0.60;;;;;;;22.33;95.29;100195.78;5108624;28;20197;-69
2023/08/08 09:01:10;;;;;;;0.68;0.68;;;;;;;22.43;96.51;100190.16;5106226;28;20267;-69
2023/08/08 09:03:37;;;;;;;0.70;0.70;;;;;;;22.83;95.16;100216.19;5107256;28;20205;-69
2023/08/08 09:06:05;;;;;;;0.60;0.60;;;;;;;22.68;92.91;100228.13;5090097;28;20575;-70
2023/08/08 09:08:34;;;;;;;0.60;0.60;;;;;;;22.54;89.80;100227.69;5087694;28;20215;-70
2023/08/08 09:11:01;;;;;;;0.77;0.77;;;;;;;22.52;89.66;100220.69;5049045;28;20204;-70
2023/08/08 09:13:28;;;;;;;0.68;0.68;;;;;;;22.65;91.07;100214.97;5108176;28;20786;-70
2023/08/08 09:15:55;;;;;;;0.65;0.65;;;;;;;22.68;86.00;100224.63;5108396;28;20201;-71
2023/08/08 09:18:24;;;;;;;0.60;0.60;;;;;;;22.88;85.48;100208.09;5108148;28;20276;-71
2023/08/08 09:20:51;;;;;;;0.50;0.50;;;;;;;22.74;84.20;100211.19;5105817;28;20201;-71
2023/08/08 09:23:18;;;;;;;0.60;0.60;;;;;;;22.67;85.93;100207.03;5105040;28;20209;-70
2023/08/08 09:25:46;;;;;;;0.65;0.65;;;;;;;22.83;83.91;100207.41;5063245;28;20197;-70
2023/08/08 09:28:13;;;;;;;0.60;0.60;;;;;;;22.97;83.63;100208.66;5107727;28;20213;-69
2023/08/08 09:30:41;;;;;;;0.60;0.60;;;;;;;23.00;83.35;100195.34;5107408;28;20194;-71
2023/08/08 09:33:08;;;;;;;0.63;0.63;;;;;;;23.13;82.53;100201.06;5103962;28;20248;-71
2023/08/08 09:35:35;;;;;;;0.60;0.60;;;;;;;23.20;79.82;100207.88;5094354;28;20217;-70
2023/08/08 09:38:02;;;;;;;0.70;0.70;;;;;;;23.08;75.45;100219.72;5094455;28;20206;-70
2023/08/08 09:40:29;;;;;;;0.70;0.70;;;;;;;23.10;77.93;100191.47;5092492;28;20202;-70
2023/08/08 09:42:58;;;;;;;0.70;0.70;;;;;;;23.20;74.53;100182.28;5093950;28;20628;-71
2023/08/08 09:45:25;;;;;;;0.70;0.70;;;;;;;23.41;71.75;100219.47;5093795;28;20198;-70
2023/08/08 09:47:53;;;;;;;1.17;1.17;;;;;;;23.22;69.78;100206.91;5093592;28;20201;-70
2023/08/08 09:50:20;;;;;;;0.73;0.73;;;;;;;23.21;70.00;100214.91;5057875;28;20252;-71
2023/08/08 09:52:47;;;;;;;0.80;0.80;;;;;;;23.43;73.20;100209.75;5088914;28;20226;-69
2023/08/08 09:55:15;;;;;;;0.57;0.57;;;;;;;23.43;64.49;100209.75;5088832;28;20205;-70
2023/08/08 09:57:44;;;;;;;0.70;0.70;;;;;;;23.22;65.91;100174.31;5087440;28;20198;-71
2023/08/08 10:00:15;;;;;;;0.60;0.60;;;;;;;23.43;66.28;100204.47;5089820;28;20594;-71
2023/08/08 10:02:44;;;;;;;0.70;0.70;;;;;;;23.70;68.83;100214.06;5086178;28;20642;-70
2023/08/08 10:05:12;;;;;;;0.70;0.70;;;;;;;23.48;63.99;100187.50;5091300;28;20293;-69
2023/08/08 10:07:41;;;;;;;0.70;0.70;;;;;;;23.63;63.95;100217.84;5093584;28;20683;-71
2023/08/08 10:10:10;;;;;;;0.70;0.70;;;;;;;23.57;67.87;100215.44;5092657;28;20203;-70
2023/08/08 10:12:38;;;;;;;2.10;1.13;;;;;;;23.31;68.06;100199.56;5058129;28;20278;-70
2023/08/08 10:15:08;;;;;;;0.70;0.70;;;;;;;23.49;68.97;100201.59;5055053;28;20213;-71
2023/08/08 10:17:38;;;;;;;0.60;0.60;;;;;;;23.66;71.43;100205.34;5088895;28;20210;-70
2023/08/08 10:20:11;;;;;;;0.77;0.77;;;;;;;23.91;70.16;100223.84;5090306;28;20741;-70
2023/08/08 10:22:39;;;;;;;0.63;0.63;;;;;;;24.09;70.37;100225.81;5060084;28;20211;-72
2023/08/08 10:25:06;;;;;;;0.82;0.82;;;;;;;24.27;71.80;100212.81;5085990;28;20657;-70
2023/08/08 10:27:34;;;;;;;0.60;0.60;;;;;;;24.36;70.38;100221.28;5053911;28;20206;-72
2023/08/08 10:30:07;;;;;;;0.80;0.80;;;;;;;24.14;70.91;100194.75;5085295;28;20198;-71
2023/08/08 10:32:42;;;;;;;0.70;0.70;;;;;;;24.22;70.82;100212.13;5088833;28;20320;-71
2023/08/08 10:35:10;;;;;;;0.70;0.70;;;;;;;24.06;70.80;100211.81;5088724;28;20291;-71
2023/08/08 10:37:37;;;;;;;0.60;0.60;;;;;;;23.93;70.54;100203.50;5091925;28;20709;-70
2023/08/08 10:40:06;;;;;;;0.70;0.70;;;;;;;23.85;72.22;100202.91;5092288;28;20210;-71
2023/08/08 10:42:41;;;;;;;0.60;0.60;;;;;;;23.90;74.09;100210.69;5088129;28;20202;-70
2023/08/08 10:45:11;;;;;;;0.70;0.70;;;;;;;23.93;73.70;100179.66;5076242;28;20201;-70
2023/08/08 10:47:38;;;;;;;0.70;0.70;;;;;;;24.13;72.56;100184.19;5086929;28;20202;-70
2023/08/08 10:50:09;;;;;;;0.60;0.60;;;;;;;24.13;68.44;100205.41;5089645;28;20202;-70
2023/08/08 10:52:39;;;;;;;0.82;0.82;;;;;;;23.94;69.01;100202.53;5086858;28;20233;-71
2023/08/08 10:55:18;;;;;;;0.65;0.65;;;;;;;23.91;69.53;100193.84;5091311;28;20593;-71
2023/08/08 10:57:54;;;;;;;0.60;0.60;;;;;;;24.11;70.95;100205.41;5090826;28;20204;-70
2023/08/08 11:00:25;;;;;;;0.88;0.88;;;;;;;24.08;69.10;100192.28;5091234;28;20193;-72
2023/08/08 11:02:52;;;;;;;0.70;0.70;;;;;;;23.99;66.35;100166.16;5007669;28;20198;-70
2023/08/08 11:05:21;;;;;;;0.70;0.70;;;;;;;23.89;66.55;100180.69;5092251;28;20198;-69
2023/08/08 11:07:48;;;;;;;0.65;0.65;;;;;;;23.91;68.15;100199.16;5090664;28;20202;-70
2023/08/08 11:10:15;;;;;;;0.75;0.75;;;;;;;23.97;64.29;100199.78;5089453;28;20603;-69
2023/08/08 11:12:42;;;;;;;0.68;0.68;;;;;;;24.13;66.28;100193.00;5091933;28;20230;-69
2023/08/08 11:15:10;;;;;;;0.60;0.60;;;;;;;24.19;63.25;100206.03;5081079;28;20210;-70
2023/08/08 11:17:37;;;;;;;0.70;0.70;;;;;;;24.49;60.97;100200.44;5071329;28;20195;-70
2023/08/08 11:20:04;;;;;;;0.60;0.60;;;;;;;24.56;62.53;100210.75;5071494;28;20197;-70
2023/08/08 11:22:33;;;;;;;0.70;0.70;;;;;;;24.57;66.58;100207.19;5071737;28;20209;-70
2023/08/08 11:25:03;;;;;;;0.73;0.73;;;;;;;24.71;70.66;100201.31;5078550;28;20205;-70
2023/08/08 11:27:30;;;;;;;0.85;0.85;;;;;;;24.63;67.87;100198.97;5070846;28;20284;-69
2023/08/08 11:29:57;;;;;;;0.60;0.60;;;;;;;24.44;64.03;100191.78;5091235;28;20202;-70
2023/08/08 11:32:25;;;;;;;0.80;0.80;;;;;;;24.41;63.41;100211.34;5088514;28;20338;-70
2023/08/08 11:34:52;;;;;;;0.50;0.50;;;;;;;24.71;64.87;100205.75;5091036;28;20197;-70
2023/08/08 11:37:20;;;;;;;0.75;0.75;;;;;;;24.79;61.88;100204.50;5091042;28;20198;-70
2023/08/08 11:39:48;;;;;;;0.80;0.80;;;;;;;24.72;60.33;100205.69;5090715;28;20585;-70
2023/08/08 11:42:15;;;;;;;0.80;0.80;;;;;;;24.69;61.38;100206.66;5090735;28;20202;-70
2023/08/08 11:44:43;;;;;;;0.70;0.70;;;;;;;24.71;62.54;100206.63;5090886;28;20218;-70
2023/08/08 11:47:09;;;;;;;0.60;0.60;;;;;;;24.88;62.19;100198.84;5091038;28;20202;-69
2023/08/08 11:49:41;;;;;;;0.75;0.75;;;;;;;25.07;63.78;100191.84;5091355;28;20692;-72
2023/08/08 11:52:08;;;;;;;0.73;0.73;;;;;;;25.03;62.46;100192.91;5091106;28;20198;-70
2023/08/08 11:54:37;;;;;;;0.50;0.50;;;;;;;25.21;58.55;100190.38;5084982;28;20284;-70
2023/08/08 11:57:06;;;;;;;0.75;0.75;;;;;;;25.15;56.65;100183.53;5089727;28;20198;-70
2023/08/08 11:59:32;;;;;;;0.60;0.60;;;;;;;24.94;55.40;100161.44;5090996;28;20628;-71